sensor_id;sensor_type;location;lat;lon;timestamp;P1;durP1;ratioP1;P2;durP2;ratioP2
14381;SDS011;7275;50.328;8.720;2023-09-19T00:00:56;4.50;;;2.60;;
14381;SDS011;7275;50.328;8.720;2023-09-19T00:03:25;2.60;;;2.30;;
14381;SDS011;7275;50.328;8.720;2023-09-19T00:05:55;5.80;;;2.30;;
14381;SDS011;7275;50.328;8.720;2023-09-19T00:08:26;2.73;;;2.27;;
14381;SDS011;7275;50.328;8.720;2023-09-19T00:10:53;2.37;;;2.17;;
14381;SDS011;7275;50.328;8.720;2023-09-19T00:13:22;3.53;;;2.57;;
14381;SDS011;7275;50.328;8.720;2023-09-19T00:15:51;2.60;;;2.17;;
14381;SDS011;7275;50.328;8.720;2023-09-19T00:18:19;2.67;;;2.10;;
14381;SDS011;7275;50.328;8.720;2023-09-19T00:20:50;3.13;;;2.03;;
14381;SDS011;7275;50.328;8.720;2023-09-19T00:23:19;3.30;;;2.30;;
14381;SDS011;7275;50.328;8.720;2023-09-19T00:25:47;4.53;;;2.10;;
14381;SDS011;7275;50.328;8.720;2023-09-19T00:28:15;2.57;;;2.30;;
14381;SDS011;7275;50.328;8.720;2023-09-19T00:30:43;2.40;;;2.10;;
14381;SDS011;7275;50.328;8.720;2023-09-19T00:33:16;3.33;;;2.30;;
14381;SDS011;7275;50.328;8.720;2023-09-19T00:35:48;2.47;;;2.23;;
14381;SDS011;7275;50.328;8.720;2023-09-19T00:38:17;2.37;;;1.97;;
14381;SDS011;7275;50.328;8.720;2023-09-19T00:40:48;4.57;;;2.00;;
14381;SDS011;7275;50.328;8.720;2023-09-19T00:43:16;2.60;;;2.10;;
14381;SDS011;7275;50.328;8.720;2023-09-19T00:45:45;2.50;;;2.00;;
14381;SDS011;7275;50.328;8.720;2023-09-19T00:48:14;2.77;;;1.83;;
14381;SDS011;7275;50.328;8.720;2023-09-19T00:50:44;2.57;;;1.90;;
14381;SDS011;7275;50.328;8.720;2023-09-19T00:53:14;4.03;;;2.27;;
14381;SDS011;7275;50.328;8.720;2023-09-19T00:55:45;2.97;;;2.43;;
14381;SDS011;7275;50.328;8.720;2023-09-19T00:58:14;4.67;;;2.33;;
14381;SDS011;7275;50.328;8.720;2023-09-19T01:00:43;5.47;;;2.17;;
14381;SDS011;7275;50.328;8.720;2023-09-19T01:03:11;4.00;;;2.17;;
14381;SDS011;7275;50.328;8.720;2023-09-19T01:05:40;2.63;;;2.20;;
14381;SDS011;7275;50.328;8.720;2023-09-19T01:08:08;4.37;;;2.47;;
14381;SDS011;7275;50.328;8.720;2023-09-19T01:10:39;3.57;;;2.43;;
14381;SDS011;7275;50.328;8.720;2023-09-19T01:13:20;5.13;;;2.40;;
14381;SDS011;7275;50.328;8.720;2023-09-19T01:15:58;4.57;;;2.50;;
14381;SDS011;7275;50.328;8.720;2023-09-19T01:18:37;6.20;;;2.90;;
14381;SDS011;7275;50.328;8.720;2023-09-19T01:21:14;2.97;;;2.40;;
14381;SDS011;7275;50.328;8.720;2023-09-19T01:23:57;3.03;;;2.73;;
14381;SDS011;7275;50.328;8.720;2023-09-19T01:26:51;3.33;;;2.53;;
14381;SDS011;7275;50.328;8.720;2023-09-19T01:29:34;4.70;;;3.00;;
14381;SDS011;7275;50.328;8.720;2023-09-19T01:32:08;3.47;;;2.50;;
14381;SDS011;7275;50.328;8.720;2023-09-19T01:34:43;3.73;;;2.57;;
14381;SDS011;7275;50.328;8.720;2023-09-19T01:37:13;3.13;;;2.53;;
14381;SDS011;7275;50.328;8.720;2023-09-19T01:39:45;3.37;;;2.60;;
14381;SDS011;7275;50.328;8.720;2023-09-19T01:42:18;4.80;;;3.10;;
14381;SDS011;7275;50.328;8.720;2023-09-19T01:44:51;5.33;;;2.90;;
14381;SDS011;7275;50.328;8.720;2023-09-19T01:47:28;2.87;;;2.53;;
14381;SDS011;7275;50.328;8.720;2023-09-19T01:50:02;4.20;;;2.30;;
14381;SDS011;7275;50.328;8.720;2023-09-19T01:52:38;2.67;;;2.47;;
14381;SDS011;7275;50.328;8.720;2023-09-19T01:55:13;4.70;;;2.33;;
14381;SDS011;7275;50.328;8.720;2023-09-19T01:57:47;4.53;;;2.60;;
14381;SDS011;7275;50.328;8.720;2023-09-19T02:00:19;3.00;;;2.40;;
14381;SDS011;7275;50.328;8.720;2023-09-19T02:02:51;4.33;;;2.80;;
14381;SDS011;7275;50.328;8.720;2023-09-19T02:05:22;4.00;;;2.70;;
14381;SDS011;7275;50.328;8.720;2023-09-19T02:10:19;5.87;;;2.57;;
14381;SDS011;7275;50.328;8.720;2023-09-19T02:12:47;4.43;;;2.50;;
14381;SDS011;7275;50.328;8.720;2023-09-19T02:15:15;4.60;;;2.50;;
14381;SDS011;7275;50.328;8.720;2023-09-19T02:17:43;4.13;;;2.80;;
14381;SDS011;7275;50.328;8.720;2023-09-19T02:20:13;3.33;;;2.50;;
14381;SDS011;7275;50.328;8.720;2023-09-19T02:22:43;3.77;;;2.50;;
14381;SDS011;7275;50.328;8.720;2023-09-19T02:25:11;4.73;;;2.40;;
14381;SDS011;7275;50.328;8.720;2023-09-19T02:27:40;3.73;;;2.47;;
14381;SDS011;7275;50.328;8.720;2023-09-19T02:30:08;3.83;;;2.50;;
14381;SDS011;7275;50.328;8.720;2023-09-19T02:32:36;3.00;;;2.30;;
14381;SDS011;7275;50.328;8.720;2023-09-19T02:35:06;4.70;;;2.50;;
14381;SDS011;7275;50.328;8.720;2023-09-19T02:37:38;2.67;;;2.10;;
14381;SDS011;7275;50.328;8.720;2023-09-19T02:40:07;3.67;;;2.20;;
14381;SDS011;7275;50.328;8.720;2023-09-19T02:42:46;3.07;;;2.30;;
14381;SDS011;7275;50.328;8.720;2023-09-19T02:45:17;4.43;;;2.47;;
14381;SDS011;7275;50.328;8.720;2023-09-19T02:47:45;4.97;;;2.37;;
14381;SDS011;7275;50.328;8.720;2023-09-19T02:50:13;2.30;;;2.10;;
14381;SDS011;7275;50.328;8.720;2023-09-19T02:52:44;3.37;;;1.80;;
14381;SDS011;7275;50.328;8.720;2023-09-19T02:55:15;3.10;;;1.73;;
14381;SDS011;7275;50.328;8.720;2023-09-19T02:57:46;2.67;;;1.80;;
14381;SDS011;7275;50.328;8.720;2023-09-19T03:00:14;3.80;;;1.90;;
14381;SDS011;7275;50.328;8.720;2023-09-19T03:02:47;3.57;;;2.07;;
14381;SDS011;7275;50.328;8.720;2023-09-19T03:05:15;3.53;;;1.83;;
14381;SDS011;7275;50.328;8.720;2023-09-19T03:07:46;3.80;;;1.90;;
14381;SDS011;7275;50.328;8.720;2023-09-19T03:10:17;3.30;;;1.87;;
14381;SDS011;7275;50.328;8.720;2023-09-19T03:12:45;2.60;;;1.93;;
14381;SDS011;7275;50.328;8.720;2023-09-19T03:15:13;4.03;;;1.90;;
14381;SDS011;7275;50.328;8.720;2023-09-19T03:17:42;2.67;;;1.70;;
14381;SDS011;7275;50.328;8.720;2023-09-19T03:20:10;2.77;;;1.70;;
14381;SDS011;7275;50.328;8.720;2023-09-19T03:22:40;2.63;;;1.50;;
14381;SDS011;7275;50.328;8.720;2023-09-19T03:25:10;2.07;;;1.53;;
14381;SDS011;7275;50.328;8.720;2023-09-19T03:27:38;1.70;;;1.50;;
14381;SDS011;7275;50.328;8.720;2023-09-19T03:30:07;2.90;;;1.50;;
14381;SDS011;7275;50.328;8.720;2023-09-19T03:32:35;2.97;;;1.50;;
14381;SDS011;7275;50.328;8.720;2023-09-19T03:35:03;3.30;;;1.60;;
14381;SDS011;7275;50.328;8.720;2023-09-19T03:37:32;2.90;;;1.77;;
14381;SDS011;7275;50.328;8.720;2023-09-19T03:40:00;2.53;;;1.53;;
14381;SDS011;7275;50.328;8.720;2023-09-19T03:42:33;2.40;;;1.50;;
14381;SDS011;7275;50.328;8.720;2023-09-19T03:45:03;3.90;;;1.63;;
14381;SDS011;7275;50.328;8.720;2023-09-19T03:47:32;2.03;;;1.40;;
14381;SDS011;7275;50.328;8.720;2023-09-19T03:50:00;1.83;;;1.43;;
14381;SDS011;7275;50.328;8.720;2023-09-19T03:52:27;2.50;;;1.50;;
14381;SDS011;7275;50.328;8.720;2023-09-19T03:54:55;2.00;;;1.50;;
14381;SDS011;7275;50.328;8.720;2023-09-19T03:57:22;2.63;;;1.50;;
14381;SDS011;7275;50.328;8.720;2023-09-19T03:59:51;2.50;;;1.70;;
14381;SDS011;7275;50.328;8.720;2023-09-19T04:02:20;2.90;;;1.63;;
14381;SDS011;7275;50.328;8.720;2023-09-19T04:04:51;2.53;;;1.50;;
14381;SDS011;7275;50.328;8.720;2023-09-19T04:07:19;2.40;;;1.60;;
14381;SDS011;7275;50.328;8.720;2023-09-19T04:09:48;2.13;;;1.50;;
14381;SDS011;7275;50.328;8.720;2023-09-19T04:12:16;2.73;;;1.50;;
14381;SDS011;7275;50.328;8.720;2023-09-19T04:14:44;2.97;;;1.60;;
14381;SDS011;7275;50.328;8.720;2023-09-19T04:17:13;2.07;;;1.60;;
14381;SDS011;7275;50.328;8.720;2023-09-19T04:19:41;3.13;;;1.60;;
14381;SDS011;7275;50.328;8.720;2023-09-19T04:22:08;2.77;;;1.80;;
14381;SDS011;7275;50.328;8.720;2023-09-19T04:24:37;3.17;;;1.73;;
14381;SDS011;7275;50.328;8.720;2023-09-19T04:27:05;3.00;;;1.77;;
14381;SDS011;7275;50.328;8.720;2023-09-19T04:29:33;2.07;;;1.60;;
14381;SDS011;7275;50.328;8.720;2023-09-19T04:32:01;2.20;;;1.60;;
14381;SDS011;7275;50.328;8.720;2023-09-19T04:34:31;3.77;;;1.90;;
14381;SDS011;7275;50.328;8.720;2023-09-19T04:37:00;3.20;;;1.70;;
14381;SDS011;7275;50.328;8.720;2023-09-19T04:39:29;7.30;;;1.80;;
14381;SDS011;7275;50.328;8.720;2023-09-19T04:41:57;1.83;;;1.70;;
14381;SDS011;7275;50.328;8.720;2023-09-19T04:44:25;3.10;;;2.10;;
14381;SDS011;7275;50.328;8.720;2023-09-19T04:46:54;2.57;;;1.90;;
14381;SDS011;7275;50.328;8.720;2023-09-19T04:49:22;2.33;;;1.80;;
14381;SDS011;7275;50.328;8.720;2023-09-19T04:51:51;2.73;;;2.13;;
14381;SDS011;7275;50.328;8.720;2023-09-19T04:54:18;2.67;;;1.90;;
14381;SDS011;7275;50.328;8.720;2023-09-19T04:56:46;2.80;;;1.97;;
14381;SDS011;7275;50.328;8.720;2023-09-19T04:59:14;3.13;;;2.00;;
14381;SDS011;7275;50.328;8.720;2023-09-19T05:01:42;3.80;;;2.20;;
14381;SDS011;7275;50.328;8.720;2023-09-19T05:04:09;4.33;;;2.30;;
14381;SDS011;7275;50.328;8.720;2023-09-19T05:06:38;2.83;;;2.20;;
14381;SDS011;7275;50.328;8.720;2023-09-19T05:09:06;3.67;;;2.27;;
14381;SDS011;7275;50.328;8.720;2023-09-19T05:11:34;3.77;;;2.10;;
14381;SDS011;7275;50.328;8.720;2023-09-19T05:14:04;2.30;;;2.10;;
14381;SDS011;7275;50.328;8.720;2023-09-19T05:16:31;2.33;;;2.10;;
14381;SDS011;7275;50.328;8.720;2023-09-19T05:18:59;2.70;;;2.17;;
14381;SDS011;7275;50.328;8.720;2023-09-19T05:21:28;5.70;;;2.43;;
14381;SDS011;7275;50.328;8.720;2023-09-19T05:23:56;4.60;;;2.50;;
14381;SDS011;7275;50.328;8.720;2023-09-19T05:26:25;3.20;;;2.33;;
14381;SDS011;7275;50.328;8.720;2023-09-19T05:28:52;4.20;;;2.50;;
14381;SDS011;7275;50.328;8.720;2023-09-19T05:31:20;4.07;;;2.70;;
14381;SDS011;7275;50.328;8.720;2023-09-19T05:33:49;5.67;;;2.70;;
14381;SDS011;7275;50.328;8.720;2023-09-19T05:36:17;5.53;;;2.40;;
14381;SDS011;7275;50.328;8.720;2023-09-19T05:38:44;3.13;;;2.07;;
14381;SDS011;7275;50.328;8.720;2023-09-19T05:41:15;4.10;;;2.60;;
14381;SDS011;7275;50.328;8.720;2023-09-19T05:43:45;3.97;;;2.20;;
14381;SDS011;7275;50.328;8.720;2023-09-19T05:46:13;2.63;;;2.10;;
14381;SDS011;7275;50.328;8.720;2023-09-19T05:48:42;4.63;;;2.20;;
14381;SDS011;7275;50.328;8.720;2023-09-19T05:51:10;3.57;;;2.00;;
14381;SDS011;7275;50.328;8.720;2023-09-19T05:53:37;2.67;;;2.23;;
14381;SDS011;7275;50.328;8.720;2023-09-19T05:56:05;3.07;;;2.10;;
14381;SDS011;7275;50.328;8.720;2023-09-19T05:58:33;3.20;;;2.07;;
14381;SDS011;7275;50.328;8.720;2023-09-19T06:01:02;3.80;;;2.27;;
14381;SDS011;7275;50.328;8.720;2023-09-19T06:03:30;4.20;;;2.17;;
14381;SDS011;7275;50.328;8.720;2023-09-19T06:05:58;3.80;;;2.10;;
14381;SDS011;7275;50.328;8.720;2023-09-19T06:08:25;4.83;;;2.03;;
14381;SDS011;7275;50.328;8.720;2023-09-19T06:10:54;4.87;;;2.00;;
14381;SDS011;7275;50.328;8.720;2023-09-19T06:13:21;3.33;;;2.00;;
14381;SDS011;7275;50.328;8.720;2023-09-19T06:15:51;2.87;;;1.80;;
14381;SDS011;7275;50.328;8.720;2023-09-19T06:18:21;3.93;;;2.20;;
14381;SDS011;7275;50.328;8.720;2023-09-19T06:20:53;4.80;;;1.90;;
14381;SDS011;7275;50.328;8.720;2023-09-19T06:23:21;5.67;;;2.20;;
14381;SDS011;7275;50.328;8.720;2023-09-19T06:25:49;3.30;;;1.93;;
14381;SDS011;7275;50.328;8.720;2023-09-19T06:28:16;4.13;;;2.07;;
14381;SDS011;7275;50.328;8.720;2023-09-19T06:30:50;3.27;;;2.07;;
14381;SDS011;7275;50.328;8.720;2023-09-19T06:33:17;3.70;;;2.00;;
14381;SDS011;7275;50.328;8.720;2023-09-19T06:35:49;4.33;;;2.10;;
14381;SDS011;7275;50.328;8.720;2023-09-19T06:38:19;3.03;;;2.03;;
14381;SDS011;7275;50.328;8.720;2023-09-19T06:40:46;3.60;;;2.27;;
14381;SDS011;7275;50.328;8.720;2023-09-19T06:43:14;2.77;;;2.10;;
14381;SDS011;7275;50.328;8.720;2023-09-19T06:45:41;4.43;;;2.10;;
14381;SDS011;7275;50.328;8.720;2023-09-19T06:48:09;3.10;;;2.00;;
14381;SDS011;7275;50.328;8.720;2023-09-19T06:50:38;3.10;;;2.20;;
14381;SDS011;7275;50.328;8.720;2023-09-19T06:53:08;2.43;;;2.10;;
14381;SDS011;7275;50.328;8.720;2023-09-19T06:55:36;3.73;;;2.27;;
14381;SDS011;7275;50.328;8.720;2023-09-19T06:58:03;3.40;;;2.30;;
14381;SDS011;7275;50.328;8.720;2023-09-19T07:00:32;3.13;;;2.20;;
14381;SDS011;7275;50.328;8.720;2023-09-19T07:03:03;2.87;;;2.27;;
14381;SDS011;7275;50.328;8.720;2023-09-19T07:05:37;4.37;;;2.27;;
14381;SDS011;7275;50.328;8.720;2023-09-19T07:08:06;4.13;;;2.40;;
14381;SDS011;7275;50.328;8.720;2023-09-19T07:10:35;6.10;;;2.57;;
14381;SDS011;7275;50.328;8.720;2023-09-19T07:13:07;5.10;;;2.10;;
14381;SDS011;7275;50.328;8.720;2023-09-19T07:15:37;4.13;;;2.30;;
14381;SDS011;7275;50.328;8.720;2023-09-19T07:18:13;2.60;;;1.90;;
14381;SDS011;7275;50.328;8.720;2023-09-19T07:20:43;3.67;;;1.90;;
14381;SDS011;7275;50.328;8.720;2023-09-19T07:23:15;2.80;;;1.90;;
14381;SDS011;7275;50.328;8.720;2023-09-19T07:25:45;4.00;;;1.93;;
14381;SDS011;7275;50.328;8.720;2023-09-19T07:28:14;4.70;;;2.10;;
14381;SDS011;7275;50.328;8.720;2023-09-19T07:30:42;5.67;;;2.00;;
14381;SDS011;7275;50.328;8.720;2023-09-19T07:33:10;2.30;;;1.67;;
14381;SDS011;7275;50.328;8.720;2023-09-19T07:35:38;2.73;;;1.70;;
14381;SDS011;7275;50.328;8.720;2023-09-19T07:38:07;4.23;;;2.00;;
14381;SDS011;7275;50.328;8.720;2023-09-19T07:40:34;4.17;;;2.03;;
14381;SDS011;7275;50.328;8.720;2023-09-19T07:43:04;2.87;;;1.80;;
14381;SDS011;7275;50.328;8.720;2023-09-19T07:45:33;4.10;;;1.80;;
14381;SDS011;7275;50.328;8.720;2023-09-19T07:48:02;3.37;;;1.90;;
14381;SDS011;7275;50.328;8.720;2023-09-19T07:50:33;2.67;;;1.80;;
14381;SDS011;7275;50.328;8.720;2023-09-19T07:53:02;2.77;;;1.60;;
14381;SDS011;7275;50.328;8.720;2023-09-19T07:55:31;3.33;;;1.67;;
14381;SDS011;7275;50.328;8.720;2023-09-19T07:58:00;3.80;;;1.70;;
14381;SDS011;7275;50.328;8.720;2023-09-19T08:00:31;3.80;;;1.50;;
14381;SDS011;7275;50.328;8.720;2023-09-19T08:03:01;3.27;;;1.77;;
14381;SDS011;7275;50.328;8.720;2023-09-19T08:05:41;2.77;;;1.70;;
14381;SDS011;7275;50.328;8.720;2023-09-19T08:08:10;2.03;;;1.40;;
14381;SDS011;7275;50.328;8.720;2023-09-19T08:10:40;4.13;;;1.60;;
14381;SDS011;7275;50.328;8.720;2023-09-19T08:13:09;3.23;;;1.77;;
14381;SDS011;7275;50.328;8.720;2023-09-19T08:15:43;4.33;;;2.00;;
14381;SDS011;7275;50.328;8.720;2023-09-19T08:18:11;3.67;;;1.80;;
14381;SDS011;7275;50.328;8.720;2023-09-19T08:20:39;2.70;;;1.70;;
14381;SDS011;7275;50.328;8.720;2023-09-19T08:23:08;3.90;;;1.70;;
14381;SDS011;7275;50.328;8.720;2023-09-19T08:25:36;4.70;;;1.97;;
14381;SDS011;7275;50.328;8.720;2023-09-19T08:28:05;2.87;;;1.83;;
14381;SDS011;7275;50.328;8.720;2023-09-19T08:30:35;5.63;;;1.63;;
14381;SDS011;7275;50.328;8.720;2023-09-19T08:33:05;4.40;;;1.93;;
14381;SDS011;7275;50.328;8.720;2023-09-19T08:35:33;3.70;;;1.70;;
14381;SDS011;7275;50.328;8.720;2023-09-19T08:38:01;2.60;;;1.70;;
14381;SDS011;7275;50.328;8.720;2023-09-19T08:40:30;4.30;;;1.80;;
14381;SDS011;7275;50.328;8.720;2023-09-19T08:43:00;4.03;;;1.83;;
14381;SDS011;7275;50.328;8.720;2023-09-19T08:45:27;3.17;;;1.70;;
14381;SDS011;7275;50.328;8.720;2023-09-19T08:47:56;3.50;;;1.55;;
14381;SDS011;7275;50.328;8.720;2023-09-19T08:50:47;3.63;;;1.50;;
14381;SDS011;7275;50.328;8.720;2023-09-19T08:53:19;5.30;;;1.90;;
14381;SDS011;7275;50.328;8.720;2023-09-19T08:55:53;3.63;;;1.73;;
14381;SDS011;7275;50.328;8.720;2023-09-19T08:58:25;2.55;;;1.75;;
14381;SDS011;7275;50.328;8.720;2023-09-19T09:00:56;3.25;;;1.65;;
14381;SDS011;7275;50.328;8.720;2023-09-19T09:03:26;4.03;;;1.70;;
14381;SDS011;7275;50.328;8.720;2023-09-19T09:06:01;2.63;;;1.60;;
14381;SDS011;7275;50.328;8.720;2023-09-19T09:08:29;4.60;;;1.98;;
14381;SDS011;7275;50.328;8.720;2023-09-19T09:10:58;2.78;;;1.70;;
14381;SDS011;7275;50.328;8.720;2023-09-19T09:13:26;3.47;;;1.67;;
14381;SDS011;7275;50.328;8.720;2023-09-19T09:15:54;4.03;;;1.85;;
14381;SDS011;7275;50.328;8.720;2023-09-19T09:18:21;3.35;;;1.73;;
14381;SDS011;7275;50.328;8.720;2023-09-19T09:20:50;2.35;;;1.50;;
14381;SDS011;7275;50.328;8.720;2023-09-19T09:23:19;4.47;;;1.80;;
14381;SDS011;7275;50.328;8.720;2023-09-19T09:25:47;3.17;;;1.70;;
14381;SDS011;7275;50.328;8.720;2023-09-19T09:28:21;3.53;;;1.60;;
14381;SDS011;7275;50.328;8.720;2023-09-19T09:30:50;3.65;;;1.70;;
14381;SDS011;7275;50.328;8.720;2023-09-19T09:33:18;2.83;;;1.55;;
14381;SDS011;7275;50.328;8.720;2023-09-19T09:35:48;5.35;;;1.77;;
14381;SDS011;7275;50.328;8.720;2023-09-19T09:38:20;3.20;;;1.90;;
14381;SDS011;7275;50.328;8.720;2023-09-19T09:40:52;3.53;;;1.70;;
14381;SDS011;7275;50.328;8.720;2023-09-19T09:43:27;3.95;;;1.73;;
14381;SDS011;7275;50.328;8.720;2023-09-19T09:46:09;3.70;;;1.80;;
14381;SDS011;7275;50.328;8.720;2023-09-19T09:48:56;4.32;;;1.70;;
14381;SDS011;7275;50.328;8.720;2023-09-19T09:51:59;2.80;;;1.52;;
14381;SDS011;7275;50.328;8.720;2023-09-19T09:54:38;5.07;;;2.08;;
14381;SDS011;7275;50.328;8.720;2023-09-19T09:57:08;3.53;;;1.70;;
14381;SDS011;7275;50.328;8.720;2023-09-19T09:59:45;3.03;;;1.83;;
14381;SDS011;7275;50.328;8.720;2023-09-19T10:02:16;3.42;;;1.60;;
14381;SDS011;7275;50.328;8.720;2023-09-19T10:04:49;4.88;;;1.70;;
14381;SDS011;7275;50.328;8.720;2023-09-19T10:07:26;3.10;;;1.85;;
14381;SDS011;7275;50.328;8.720;2023-09-19T10:10:03;3.03;;;1.75;;
14381;SDS011;7275;50.328;8.720;2023-09-19T10:12:39;3.30;;;1.90;;
14381;SDS011;7275;50.328;8.720;2023-09-19T10:15:11;3.83;;;1.80;;
14381;SDS011;7275;50.328;8.720;2023-09-19T10:17:42;2.83;;;1.63;;
14381;SDS011;7275;50.328;8.720;2023-09-19T10:20:14;3.78;;;1.80;;
14381;SDS011;7275;50.328;8.720;2023-09-19T10:23:00;3.90;;;2.00;;
14381;SDS011;7275;50.328;8.720;2023-09-19T10:25:37;4.30;;;2.30;;
14381;SDS011;7275;50.328;8.720;2023-09-19T10:28:06;3.35;;;1.88;;
14381;SDS011;7275;50.328;8.720;2023-09-19T10:30:40;4.60;;;2.20;;
14381;SDS011;7275;50.328;8.720;2023-09-19T10:33:12;5.45;;;2.20;;
14381;SDS011;7275;50.328;8.720;2023-09-19T10:35:42;5.10;;;2.67;;
14381;SDS011;7275;50.328;8.720;2023-09-19T10:38:11;4.05;;;2.00;;
14381;SDS011;7275;50.328;8.720;2023-09-19T10:40:48;4.47;;;2.17;;
14381;SDS011;7275;50.328;8.720;2023-09-19T10:43:17;2.80;;;1.80;;
14381;SDS011;7275;50.328;8.720;2023-09-19T10:45:47;2.83;;;1.70;;
14381;SDS011;7275;50.328;8.720;2023-09-19T10:48:16;4.18;;;1.80;;
14381;SDS011;7275;50.328;8.720;2023-09-19T10:50:46;5.88;;;2.05;;
14381;SDS011;7275;50.328;8.720;2023-09-19T10:53:18;3.78;;;1.90;;
14381;SDS011;7275;50.328;8.720;2023-09-19T10:55:50;5.35;;;1.90;;
14381;SDS011;7275;50.328;8.720;2023-09-19T10:58:25;4.38;;;2.30;;
14381;SDS011;7275;50.328;8.720;2023-09-19T11:00:56;3.75;;;1.98;;
14381;SDS011;7275;50.328;8.720;2023-09-19T11:03:31;4.65;;;1.90;;
14381;SDS011;7275;50.328;8.720;2023-09-19T11:06:03;3.58;;;2.05;;
14381;SDS011;7275;50.328;8.720;2023-09-19T11:11:44;3.92;;;2.10;;
14381;SDS011;7275;50.328;8.720;2023-09-19T11:14:14;5.45;;;2.15;;
14381;SDS011;7275;50.328;8.720;2023-09-19T11:25:49;4.55;;;2.00;;
14381;SDS011;7275;50.328;8.720;2023-09-19T11:28:33;5.05;;;2.10;;
14381;SDS011;7275;50.328;8.720;2023-09-19T11:34:39;4.75;;;2.50;;
14381;SDS011;7275;50.328;8.720;2023-09-19T11:40:45;4.47;;;2.17;;
14381;SDS011;7275;50.328;8.720;2023-09-19T11:43:28;6.30;;;2.30;;
14381;SDS011;7275;50.328;8.720;2023-09-19T11:46:05;6.13;;;2.28;;
14381;SDS011;7275;50.328;8.720;2023-09-19T11:48:34;3.78;;;2.20;;
14381;SDS011;7275;50.328;8.720;2023-09-19T11:51:14;5.25;;;2.10;;
14381;SDS011;7275;50.328;8.720;2023-09-19T11:53:48;4.55;;;2.35;;
14381;SDS011;7275;50.328;8.720;2023-09-19T11:56:17;7.25;;;2.30;;
14381;SDS011;7275;50.328;8.720;2023-09-19T11:58:46;4.90;;;2.13;;
14381;SDS011;7275;50.328;8.720;2023-09-19T12:01:22;3.67;;;1.95;;
14381;SDS011;7275;50.328;8.720;2023-09-19T12:03:54;4.10;;;2.13;;
14381;SDS011;7275;50.328;8.720;2023-09-19T12:06:24;4.78;;;1.98;;
14381;SDS011;7275;50.328;8.720;2023-09-19T12:08:53;5.82;;;2.05;;
14381;SDS011;7275;50.328;8.720;2023-09-19T12:11:20;4.60;;;2.58;;
14381;SDS011;7275;50.328;8.720;2023-09-19T12:13:50;4.50;;;2.20;;
14381;SDS011;7275;50.328;8.720;2023-09-19T12:16:19;4.80;;;2.20;;
14381;SDS011;7275;50.328;8.720;2023-09-19T12:18:49;4.65;;;2.53;;
14381;SDS011;7275;50.328;8.720;2023-09-19T12:21:21;3.17;;;2.00;;
14381;SDS011;7275;50.328;8.720;2023-09-19T12:24:00;4.00;;;2.20;;
14381;SDS011;7275;50.328;8.720;2023-09-19T12:26:38;5.20;;;2.00;;
14381;SDS011;7275;50.328;8.720;2023-09-19T12:29:14;5.13;;;2.22;;
14381;SDS011;7275;50.328;8.720;2023-09-19T12:31:50;4.45;;;2.00;;
14381;SDS011;7275;50.328;8.720;2023-09-19T12:34:20;4.50;;;1.88;;
14381;SDS011;7275;50.328;8.720;2023-09-19T12:36:49;4.28;;;2.53;;
14381;SDS011;7275;50.328;8.720;2023-09-19T12:39:31;3.25;;;2.10;;
14381;SDS011;7275;50.328;8.720;2023-09-19T12:41:59;3.28;;;2.05;;
14381;SDS011;7275;50.328;8.720;2023-09-19T12:44:30;4.05;;;2.30;;
14381;SDS011;7275;50.328;8.720;2023-09-19T12:47:09;3.60;;;2.13;;
14381;SDS011;7275;50.328;8.720;2023-09-19T12:52:40;2.47;;;1.85;;
14381;SDS011;7275;50.328;8.720;2023-09-19T12:55:19;5.75;;;1.92;;
14381;SDS011;7275;50.328;8.720;2023-09-19T12:57:58;2.92;;;1.77;;
14381;SDS011;7275;50.328;8.720;2023-09-19T13:00:36;3.08;;;1.83;;
14381;SDS011;7275;50.328;8.720;2023-09-19T13:03:13;3.15;;;1.77;;
14381;SDS011;7275;50.328;8.720;2023-09-19T13:05:51;5.82;;;2.25;;
14381;SDS011;7275;50.328;8.720;2023-09-19T13:08:24;4.03;;;1.80;;
14381;SDS011;7275;50.328;8.720;2023-09-19T13:11:07;2.78;;;1.85;;
14381;SDS011;7275;50.328;8.720;2023-09-19T13:13:42;4.25;;;1.95;;
14381;SDS011;7275;50.328;8.720;2023-09-19T13:16:16;4.15;;;2.05;;
14381;SDS011;7275;50.328;8.720;2023-09-19T13:18:49;5.22;;;2.17;;
14381;SDS011;7275;50.328;8.720;2023-09-19T13:21:27;2.85;;;1.70;;
14381;SDS011;7275;50.328;8.720;2023-09-19T13:26:49;3.63;;;1.83;;
14381;SDS011;7275;50.328;8.720;2023-09-19T13:29:17;4.82;;;1.88;;
14381;SDS011;7275;50.328;8.720;2023-09-19T13:31:45;5.15;;;1.80;;
14381;SDS011;7275;50.328;8.720;2023-09-19T13:34:15;3.10;;;1.88;;
14381;SDS011;7275;50.328;8.720;2023-09-19T13:36:43;2.92;;;1.85;;
14381;SDS011;7275;50.328;8.720;2023-09-19T13:39:13;4.15;;;1.95;;
14381;SDS011;7275;50.328;8.720;2023-09-19T13:41:42;3.50;;;1.90;;
14381;SDS011;7275;50.328;8.720;2023-09-19T13:44:12;4.20;;;1.92;;
14381;SDS011;7275;50.328;8.720;2023-09-19T13:46:40;3.78;;;2.00;;
14381;SDS011;7275;50.328;8.720;2023-09-19T13:49:12;4.65;;;2.00;;
14381;SDS011;7275;50.328;8.720;2023-09-19T13:51:41;3.45;;;1.85;;
14381;SDS011;7275;50.328;8.720;2023-09-19T13:54:10;3.08;;;1.65;;
14381;SDS011;7275;50.328;8.720;2023-09-19T13:56:39;3.38;;;1.70;;
14381;SDS011;7275;50.328;8.720;2023-09-19T13:59:06;3.55;;;1.77;;
14381;SDS011;7275;50.328;8.720;2023-09-19T14:01:34;2.70;;;1.70;;
14381;SDS011;7275;50.328;8.720;2023-09-19T14:04:01;5.70;;;1.90;;
14381;SDS011;7275;50.328;8.720;2023-09-19T14:06:29;4.25;;;1.75;;
14381;SDS011;7275;50.328;8.720;2023-09-19T14:08:58;5.32;;;2.00;;
14381;SDS011;7275;50.328;8.720;2023-09-19T14:11:27;3.83;;;1.90;;
14381;SDS011;7275;50.328;8.720;2023-09-19T14:13:55;4.68;;;1.52;;
14381;SDS011;7275;50.328;8.720;2023-09-19T14:16:23;4.70;;;1.80;;
14381;SDS011;7275;50.328;8.720;2023-09-19T14:18:51;4.30;;;1.95;;
14381;SDS011;7275;50.328;8.720;2023-09-19T14:21:18;2.97;;;1.70;;
14381;SDS011;7275;50.328;8.720;2023-09-19T14:23:46;4.18;;;1.65;;
14381;SDS011;7275;50.328;8.720;2023-09-19T14:26:16;5.50;;;1.80;;
14381;SDS011;7275;50.328;8.720;2023-09-19T14:28:44;5.50;;;2.00;;
14381;SDS011;7275;50.328;8.720;2023-09-19T14:31:12;3.25;;;1.65;;
14381;SDS011;7275;50.328;8.720;2023-09-19T14:33:41;4.15;;;1.80;;
14381;SDS011;7275;50.328;8.720;2023-09-19T14:36:10;4.38;;;1.90;;
14381;SDS011;7275;50.328;8.720;2023-09-19T14:38:40;3.88;;;1.80;;
14381;SDS011;7275;50.328;8.720;2023-09-19T14:41:07;5.82;;;1.88;;
14381;SDS011;7275;50.328;8.720;2023-09-19T14:43:37;3.17;;;1.60;;
14381;SDS011;7275;50.328;8.720;2023-09-19T14:46:04;3.35;;;1.50;;
14381;SDS011;7275;50.328;8.720;2023-09-19T14:48:33;3.53;;;1.75;;
14381;SDS011;7275;50.328;8.720;2023-09-19T14:51:02;3.97;;;1.90;;
14381;SDS011;7275;50.328;8.720;2023-09-19T14:53:30;2.88;;;1.67;;
14381;SDS011;7275;50.328;8.720;2023-09-19T14:55:59;3.25;;;1.52;;
14381;SDS011;7275;50.328;8.720;2023-09-19T14:58:28;3.92;;;1.73;;
14381;SDS011;7275;50.328;8.720;2023-09-19T15:01:02;3.25;;;2.00;;
14381;SDS011;7275;50.328;8.720;2023-09-19T15:03:31;3.95;;;1.75;;
14381;SDS011;7275;50.328;8.720;2023-09-19T15:06:00;2.55;;;1.70;;
14381;SDS011;7275;50.328;8.720;2023-09-19T15:08:28;2.47;;;1.52;;
14381;SDS011;7275;50.328;8.720;2023-09-19T15:10:55;2.88;;;1.60;;
14381;SDS011;7275;50.328;8.720;2023-09-19T15:13:24;2.65;;;1.75;;
14381;SDS011;7275;50.328;8.720;2023-09-19T15:15:58;3.35;;;1.73;;
14381;SDS011;7275;50.328;8.720;2023-09-19T15:18:27;4.88;;;1.80;;
14381;SDS011;7275;50.328;8.720;2023-09-19T15:20:56;3.90;;;1.60;;
14381;SDS011;7275;50.328;8.720;2023-09-19T15:23:24;3.00;;;1.50;;
14381;SDS011;7275;50.328;8.720;2023-09-19T15:25:58;3.25;;;1.48;;
14381;SDS011;7275;50.328;8.720;2023-09-19T15:28:25;2.30;;;1.50;;
14381;SDS011;7275;50.328;8.720;2023-09-19T15:30:57;5.05;;;1.92;;
14381;SDS011;7275;50.328;8.720;2023-09-19T15:33:27;2.80;;;1.65;;
14381;SDS011;7275;50.328;8.720;2023-09-19T15:36:02;5.00;;;1.70;;
14381;SDS011;7275;50.328;8.720;2023-09-19T15:38:31;2.22;;;1.55;;
14381;SDS011;7275;50.328;8.720;2023-09-19T15:40:59;3.45;;;1.63;;
14381;SDS011;7275;50.328;8.720;2023-09-19T15:43:27;4.18;;;1.83;;
14381;SDS011;7275;50.328;8.720;2023-09-19T15:45:56;1.95;;;1.50;;
14381;SDS011;7275;50.328;8.720;2023-09-19T15:48:24;3.92;;;1.67;;